Observations for BOURNEMOUTH AIRPORT, United Kingdom (EGHH)

EGHH 241550Z 06012KT CAVOK 07/M03 Q1019 
EGHH 241520Z 07014KT CAVOK 07/M03 Q1019 
EGHH 241450Z 06013KT CAVOK 07/M03 Q1019 
EGHH 241420Z 06012KT CAVOK 07/M03 Q1019 
EGHH 241350Z 05013KT CAVOK 07/M02 Q1019 
EGHH 241320Z 05011KT CAVOK 06/M02 Q1019 
EGHH 241250Z 06011KT CAVOK 06/M03 Q1019 
EGHH 241220Z 05011KT 360V090 CAVOK 06/M03 Q1020 
EGHH 241150Z 08011KT 030V120 CAVOK 05/M04 Q1019 
EGHH 241120Z 09011KT 030V120 CAVOK 05/M04 Q1020 
EGHH 241050Z 08012KT CAVOK 04/M04 Q1019 
EGHH 241020Z 06011KT CAVOK 03/M04 Q1019 
EGHH 240950Z 06011KT 030V090 CAVOK 02/M04 Q1019 
EGHH 240920Z 06010KT CAVOK 01/M03 Q1020 
EGHH 240850Z 06009KT CAVOK 00/M04 Q1020 
EGHH 240820Z 04008KT CAVOK M01/M04 Q1019
EGHH 240750Z 05007KT CAVOK M02/M05 Q1019
EGHH 240720Z 05007KT 9000 NSC M02/M05 Q1019 
EGHH 240650Z 06007KT 9000 NSC M03/M06 Q1019 
EGHH 240620Z 05007KT 9000 NSC M03/M05 Q1018 
EGHH 232150Z 06005KT 9999 FEW026 00/M03 Q1018   
EGHH 232120Z 06007KT 9999 FEW025 00/M03 Q1018   
EGHH 232050Z 07005KT 9999 FEW028 00/M04 Q1018   
EGHH 232020Z 06008KT CAVOK 00/M04 Q1018 
EGHH 231950Z 08008KT CAVOK 01/M04 Q1018 
EGHH 231920Z 08007KT CAVOK 01/M04 Q1018 
EGHH 231850Z 09006KT CAVOK 02/M04 Q1018 
EGHH 231820Z 09009KT CAVOK 02/M04 Q1018 
EGHH 231750Z 09009KT CAVOK 03/M04 Q1017 
EGHH 231720Z 08010KT CAVOK 04/M03 Q1017 
EGHH 231650Z 08011KT CAVOK 05/M03 Q1017 
EGHH 231620Z 09010KT CAVOK 05/M04 Q1017 
EGHH 231550Z 08011KT CAVOK 06/M04 Q1017 
EGHH 231520Z 08012KT CAVOK 06/M03 Q1018